• Join FlightAware (Why Join?)
  • Login
  • US Flag 
01:03AM EDT


 

Airport Tracker/Info


-or-


 

Live Flight TrackerFlight Track Log ✈ AWE1788 ✈ 21-Jul-2013 ✈ KCLT - KORD

Flight Track Log - Related Links

Times and Time Zones

All times are in EDT time to prevent confusion due to time zone crossing. See the AWE1788 flight status page for this flight to view local times or setup timezone preferences in your user account.

Time Position Orientation Groundspeed Altitude Reporting Facility
EDT Latitude Longitude Course Direction KTS MPH feet Rate Location/Type
10:57PM 35.1390 -80.9560 214° Southwest 223 257 3,000  Level FlightAware
10:57PM 35.1310 -80.9700 235° Southwest 240 276 3,300 2,220 Climbing FlightAware
10:57PM 35.1180 -81.0040 245° Southwest 245 282 4,500 2,700 Climbing FlightAware
10:58PM 35.1150 -81.0330 263° West 249 287 5,400 2,400 Climbing FlightAware
10:58PM 35.1240 -81.0620 291° West 251 289 6,300 2,160 Climbing FlightAware
10:58PM 35.1400 -81.0740 328° Northwest 256 295 6,800 1,980 Climbing FlightAware
10:59PM 35.1490 -81.0760 350° North 257 296 7,100 1,500 Climbing FlightAware
10:59PM 35.1740 -81.0700 11° North 274 315 7,500 1,620 Climbing FlightAware
10:59PM 35.2090 -81.0580 16° North 289 333 8,400 2,100 Climbing FlightAware
11:00PM 35.2350 -81.0490 16° North 293 337 9,200 1,980 Climbing FlightAware
11:00PM 35.2900 -81.0310 15° North 315 362 10,400 1,380 Climbing FlightAware
11:01PM 35.3460 -81.0120 15° North 349 402 11,000 1,140 Climbing FlightAware
11:02PM 35.4180 -80.9870 16° North 377 434 12,000 1,560 Climbing FlightAware
11:02PM 35.4800 -80.9660 15° North 388 447 13,100 1,680 Climbing FlightAware
11:03PM 35.5530 -80.9540 North 392 451 14,300 1,800 Climbing FlightAware
11:04PM 35.5980 -80.9850 331° Northwest 391 450 15,300 1,860 Climbing FlightAware
11:04PM 35.6560 -81.0460 319° Northwest 398 458 16,400 780 Climbing FlightAware
11:05PM 35.7020 -81.0950 319° Northwest 398 458 16,400  Level FlightAware
11:06PM 35.7590 -81.1560 319° Northwest 398 458 16,400 1,800 Level FlightAware
11:07PM 35.8420 -81.2570 315° West 413 475 19,400 2,940 Climbing FlightAware
11:07PM 35.8920 -81.3310 310° West 419 482 20,900 1,740 Climbing FlightAware
11:08PM 35.9630 -81.4330 311° West 421 484 22,200 1,200 Climbing FlightAware
11:09PM 36.0300 -81.5270 311° West 431 496 23,100 1,020 Climbing FlightAware
11:10PM 36.0860 -81.6060 311° West 436 502 23,800 1,020 Climbing FlightAware
11:10PM 36.1410 -81.6820 312° West 439 505 24,500 1,020 Climbing FlightAware
11:11PM 36.1993 -81.7629 312° West 446 513 25,200 1,020 Climbing FlightAware ADS-B
11:12PM 36.2428 -81.8231 312° West 447 514 25,700 900 Climbing FlightAware ADS-B
11:12PM 36.2916 -81.8895 312° West 451 519 26,200 840 Climbing FlightAware ADS-B
11:12PM 36.3209 -81.9270 314° West 455 524 26,500 1,980 Climbing FlightAware ADS-B
11:13PM 36.3694 -81.9771 320° Northwest 435 501 27,900 1,980 Climbing FlightAware ADS-B
11:13PM 36.4173 -82.0243 322° Northwest 430 495 28,600 780 Climbing FlightAware ADS-B
11:14PM 36.4746 -82.0809 322° Northwest 441 507 28,800 360 Climbing FlightAware ADS-B
11:15PM 36.5231 -82.1288 322° Northwest 448 516 29,000 480 Climbing FlightAware ADS-B
11:15PM 36.5741 -82.1793 322° Northwest 455 524 29,300 540 Climbing FlightAware ADS-B
11:16PM 36.6251 -82.2299 321° Northwest 458 527 29,600 720 Climbing FlightAware ADS-B
11:16PM 36.6786 -82.2828 322° Northwest 457 526 30,100 900 Climbing FlightAware ADS-B
11:17PM 36.7454 -82.3492 321° Northwest 455 524 30,700 900 Climbing FlightAware ADS-B
11:17PM 36.7961 -82.3997 321° Northwest 455 524 31,200 960 Climbing FlightAware ADS-B
11:18PM 36.8465 -82.4500 321° Northwest 450 518 31,700 720 Climbing FlightAware ADS-B
11:18PM 36.8973 -82.5008 321° Northwest 452 520 32,000 240 Climbing FlightAware ADS-B
11:19PM 36.9487 -82.5523 321° Northwest 445 512 32,000  Level FlightAware ADS-B
11:19PM 36.9979 -82.6017 321° Northwest 447 514 32,000  Level FlightAware ADS-B
11:20PM 37.0545 -82.6585 321° Northwest 450 518 32,000  Level FlightAware ADS-B
11:21PM 37.1034 -82.7078 321° Northwest 450 518 32,000  Level FlightAware ADS-B
11:21PM 37.1532 -82.7580 321° Northwest 450 518 32,000  Level FlightAware ADS-B
11:22PM 37.2066 -82.8069 324° Northwest 453 521 32,000  Level FlightAware ADS-B
11:22PM 37.2628 -82.8532 327° Northwest 453 521 32,000  Level FlightAware ADS-B
11:23PM 37.3226 -82.9027 327° Northwest 454 522 32,000  Level FlightAware ADS-B
11:23PM 37.3800 -82.9503 327° Northwest 454 522 32,000  Level FlightAware ADS-B
11:24PM 37.4425 -83.0024 327° Northwest 454 522 32,000  Level FlightAware ADS-B
11:24PM 37.5069 -83.0562 326° Northwest 453 521 32,000  Level FlightAware ADS-B
11:25PM 37.5594 -83.1001 326° Northwest 452 520 32,000  Level FlightAware ADS-B
11:25PM 37.6164 -83.1478 326° Northwest 451 519 32,000  Level FlightAware ADS-B
11:26PM 37.6736 -83.1957 326° Northwest 452 520 32,000  Level FlightAware ADS-B
11:27PM 37.7267 -83.2404 326° Northwest 452 520 32,000  Level FlightAware ADS-B
11:27PM 37.7791 -83.2843 326° Northwest 452 520 32,000  Level FlightAware ADS-B
11:28PM 37.8363 -83.3326 326° Northwest 453 521 32,000  Level FlightAware ADS-B
11:28PM 37.9195 -83.4028 326° Northwest 451 519 32,000  Level FlightAware ADS-B
11:29PM 37.9739 -83.4488 326° Northwest 453 521 32,000  Level FlightAware ADS-B
11:29PM 38.0271 -83.4939 326° Northwest 453 521 32,000  Level FlightAware ADS-B
11:30PM 38.0936 -83.5506 326° Northwest 452 520 32,000  Level FlightAware ADS-B
11:31PM 38.1477 -83.5966 326° Northwest 450 518 32,000 60 Level FlightAware ADS-B
11:31PM 38.2406 -83.6758 326° Northwest 448 516 32,100  Climbing FlightAware ADS-B
11:32PM 38.3337 -83.7555 326° Northwest 443 510 32,000 -60 Descending FlightAware ADS-B
11:34PM 38.4700 -83.9060 319° Northwest 32,000  Level FlightAware
11:35PM 38.5390 -83.9840 319° Northwest 441 507 32,000  Level FlightAware
11:35PM 38.5960 -84.0490 318° Northwest 442 509 32,000 60 Level FlightAware
11:36PM 38.6730 -84.1330 320° Northwest 443 510 32,100 60 Climbing FlightAware
11:37PM 38.7200 -84.1860 319° Northwest 443 510 32,100 -120 Level FlightAware
11:37PM 38.7860 -84.2800 312° West 439 505 32,000 -120 Descending FlightAware
11:38PM 38.8610 -84.3750 315° West 441 507 32,000 60 Level FlightAware
11:39PM 38.9350 -84.4530 321° Northwest 447 514 32,100  Climbing FlightAware
11:40PM 39.0300 -84.5360 326° Northwest 446 513 32,000 -60 Descending FlightAware
11:41PM 39.1070 -84.6020 326° Northwest 446 513 32,000  Level FlightAware
11:41PM 39.1820 -84.6590 330° Northwest 448 516 32,000  Level FlightAware
11:42PM 39.2460 -84.7080 329° Northwest 447 514 32,000  Level FlightAware
11:43PM 39.3130 -84.7590 330° Northwest 448 516 32,000  Level FlightAware
11:43PM 39.3960 -84.8220 330° Northwest 447 514 32,000 60 Level FlightAware
11:44PM 39.4530 -84.8660 329° Northwest 446 513 32,100  Climbing FlightAware
11:45PM 39.5340 -84.9280 329° Northwest 443 510 32,000 -120 Descending FlightAware
11:45PM 39.6050 -84.9820 330° Northwest 439 505 32,000  Level FlightAware
11:46PM 39.6800 -85.0410 329° Northwest 439 505 32,000  Level FlightAware
11:47PM 39.7550 -85.0990 329° Northwest 438 504 32,000  Level FlightAware
11:47PM 39.8250 -85.1530 329° Northwest 435 501 32,000  Level FlightAware
11:48PM 39.9010 -85.2120 329° Northwest 435 501 32,000  Level FlightAware
11:49PM 39.9700 -85.2660 329° Northwest 433 498 32,000  Level FlightAware
11:50PM 40.0450 -85.3250 329° Northwest 432 497 32,000  Level FlightAware
11:50PM 40.1140 -85.3790 329° Northwest 432 497 32,000  Level FlightAware
11:51PM 40.1880 -85.4370 329° Northwest 433 498 32,000  Level FlightAware
11:52PM 40.2570 -85.4920 329° Northwest 434 499 32,000  Level FlightAware
11:52PM 40.3210 -85.5560 323° Northwest 427 491 32,000  Level FlightAware
11:53PM 40.3710 -85.6230 314° West 427 491 32,000  Level FlightAware
11:54PM 40.4270 -85.7000 314° West 428 493 32,000 60 Level FlightAware
11:54PM 40.4850 -85.7810 313° West 428 493 32,100 60 Climbing FlightAware
11:55PM 40.5490 -85.8660 315° West 429 494 32,100 -120 Level FlightAware
11:56PM 40.6010 -85.9380 314° West 428 493 32,000 -180 Descending FlightAware
11:56PM 40.6630 -86.0230 314° West 428 493 31,900 -960 Descending FlightAware
11:57PM 40.7180 -86.0980 314° West 426 490 30,700 -1,920 Descending FlightAware
11:58PM 40.7700 -86.1710 313° West 422 486 29,400 -2,160 Descending FlightAware
11:58PM 40.8190 -86.2390 314° West 415 478 28,000 -2,220 Descending FlightAware
11:59PM 40.8800 -86.3230 314° West 415 478 26,400 -2,160 Descending FlightAware
12:00AM 40.9300 -86.3920 314° West 408 470 25,100 -2,100 Descending FlightAware
12:00AM 40.9780 -86.4600 313° West 402 463 23,800 -2,100 Descending FlightAware
12:01AM 41.0290 -86.5310 314° West 394 453 22,400 -2,220 Descending FlightAware
12:02AM 41.0800 -86.6020 314° West 386 444 20,900 -2,100 Descending FlightAware
12:03AM 41.1350 -86.6790 313° West 379 436 19,400 -2,040 Descending FlightAware
12:03AM 41.1830 -86.7470 313° West 374 430 18,000 -2,160 Descending FlightAware
12:04AM 41.2350 -86.8200 313° West 369 425 16,400 -2,160 Descending FlightAware
12:05AM 41.2810 -86.8860 313° West 365 420 15,000 -2,220 Descending FlightAware
12:05AM 41.3250 -86.9480 313° West 362 417 13,600 -2,160 Descending FlightAware
12:06AM 41.3690 -87.0110 313° West 360 414 12,300 -1,860 Descending FlightAware
12:07AM 41.4180 -87.0810 313° West 366 421 11,100 -1,020 Descending FlightAware
12:07AM 41.4610 -87.1410 314° West 367 422 11,000 -660 Descending FlightAware
12:08AM 41.5070 -87.2070 313° West 357 411 10,300 -720 Descending FlightAware
12:09AM 41.5550 -87.2770 313° West 359 413 10,000 -240 Descending FlightAware
12:09AM 41.6020 -87.3440 313° West 356 410 10,000  Level FlightAware
12:10AM 41.6520 -87.4160 313° West 357 411 10,000  Level FlightAware
12:11AM 41.6900 -87.4700 313° West 357 411 10,000  Level FlightAware
12:11AM 41.7440 -87.5500 312° West 357 411 10,000  Level FlightAware
12:12AM 41.7860 -87.6100 313° West 354 407 10,000 -120 Level FlightAware
12:13AM 41.8300 -87.6740 313° West 337 388 9,900 -360 Descending FlightAware
12:13AM 41.8540 -87.7200 305° West 309 356 9,600 -780 Descending FlightAware
12:14AM 41.8670 -87.7690 290° West 290 334 9,200 -1,020 Descending FlightAware
12:14AM 41.8760 -87.8060 288° West 284 327 8,800 -1,380 Descending FlightAware
12:14AM 41.8830 -87.8530 281° West 276 318 8,100 -1,620 Descending FlightAware
12:15AM 41.8820 -87.9020 268° West 278 320 7,300 -1,200 Descending FlightAware
12:15AM 41.8820 -87.9500 270° West 273 314 7,000 -420 Descending FlightAware
12:16AM 41.8810 -87.9760 267° West 255 293 7,000 -180 Level FlightAware
12:16AM 41.8810 -88.0060 270° West 239 275 6,900 -720 Descending FlightAware
12:16AM 41.8810 -88.0290 270° West 230 265 6,600 -1,440 Descending FlightAware
12:17AM 41.8800 -88.0580 267° West 227 261 6,000 -1,740 Descending FlightAware
12:17AM 41.8800 -88.1020 270° West 227 261 5,100 -1,800 Descending FlightAware
12:18AM 41.8800 -88.1480 270° West 228 262 4,200 -1,140 Descending FlightAware
12:18AM 41.8890 -88.1820 290° West 235 270 4,000 -300 Descending FlightAware
12:18AM 41.9030 -88.1920 332° Northwest 238 274 4,000  Level FlightAware
12:19AM 41.9200 -88.1940 355° North 224 258 4,000  Level FlightAware
12:19AM 41.9300 -88.1950 356° North 222 255 4,000  Level FlightAware
12:19AM 41.9540 -88.1800 25° Northeast 216 249 4,000  Level FlightAware
12:19AM 41.9600 -88.1650 62° Northeast 211 243 4,000 -960 Level FlightAware
12:21AM 41.9690 -88.0650 83° East 183 211 2,600 -1,080 Descending FlightAware
12:21AM 41.9690 -88.0540 90° East 173 199 2,400 -960 Descending FlightAware
12:21AM 41.9690 -88.0270 90° East 153 176 2,000 -780 Descending FlightAware
12:22AM 41.9690 -87.9990 90° East 148 170 1,700 -660 Descending FlightAware
12:22AM 41.9690 -87.9840 90° East 145 167 1,500 -780 Descending FlightAware
12:23AM 41.9690 -87.9630 90° East 143 165 1,200 -780 Descending FlightAware
12:23AM 41.9667 -87.9333 90° East 146 168 800 -780 Descending Chicago TRACON
12:25AM 41.9667 -87.9000 63° Northeast  Level FlightAware Approximate